Fitzwilliam, NH (03447)

10:37 AM EDT on June 03, 2015 (GMT -0400)
Collins Pond Road | | Change Station
CLOSE
Current Station
Personal Weather Station
Location: Fitzwilliam, NH
Elevation: 1188 ft
Nearby Weather Stations

Elev 1188 ft 42.76 °N, 72.14 °W | Updated 8 seconds ago

Clear
Clear
55.5 °F
Feels Like 55.5 °F
N
3.5
Wind Variable Wind from WNW
Gusts 3.5 mph

Today
High -- | Low -- °F
--% Chance of Precip.
Yesterday
High -- | Low -- °F
Precip. -- in
5:12 AM 8:21 PM
Full, 99% visible
Pressure 30.25 in
Visibility 10.0 miles
Clouds Clear
Dew Point 46 °F
Humidity 69%
Rainfall 0.00 in
Snow Depth Not available.
UV 7 out of 12
Pollen 7.90 out of 12
Air Quality Not available.
Flu Activity Sporadic
METAR KAFN 031352Z AUTO VRB06KT 10SM CLR 12/04 A3023 RMK AO2 SLP244 T01220039

More Conditions Fewer Conditions

Pressure 30.25 in
Visibility 10.0 miles
Clouds Clear
Dew Point 46 °F
Humidity 69%
Rainfall 0.00 in
Snow Depth Not available.
UV 7 out of 12
Pollen 7.90 out of 12
Air Quality Not available.
Flu Activity Sporadic
METAR KAFN 031352Z AUTO VRB06KT 10SM CLR 12/04 A3023 RMK AO2 SLP244 T01220039

More Conditions Fewer Conditions

10-Day Weather Forecast

×

Almanac

Astronomy

Jun. 03, 2015 Rise Set
Actual Time
Civil Twilight
Nautical Twilight
Astronomical Twilight
Moon
Length of Visible Light
Length of Day
Tomorrow will be .
, % of the Moon is Illuminated

Today's Extremes

State Highs State Lows

Community

WunderPhotos

Upload Photos

1,826,229 photos uploaded!

WunderBlogs® & News

Nearby

Air Quality

  Air Quality AQ Index Pollutant
Not available.

Snow Depth

Station Depth Elevation

Earthquake Activity

City Distance Mag. Time & Date
Minimum magnitude displayed is 2.5.

Coastal Water Temperatures

Place Temperature

Stations

Nearby Weather Stations

Station Location Temp. Windchill Dew Point Humidity Wind Precip. Elev Updated Type